createdAt,value
2023-01-28T00:00:06.928Z,100.00
2023-01-28T00:02:36.833Z,100.00
2023-01-28T00:05:10.084Z,100.00
2023-01-28T00:07:40.026Z,100.00
2023-01-28T00:10:10.663Z,100.00
2023-01-28T00:12:40.236Z,100.00
2023-01-28T00:15:10.959Z,100.00
2023-01-28T00:17:40.733Z,100.00
2023-01-28T00:20:14.480Z,100.00
2023-01-28T00:22:44.036Z,100.00
2023-01-28T00:25:13.816Z,100.00
2023-01-28T00:27:43.727Z,100.00
2023-01-28T00:30:14.791Z,100.00
2023-01-28T00:32:44.666Z,100.00
2023-01-28T00:35:18.311Z,100.00
2023-01-28T00:37:48.905Z,100.00
2023-01-28T00:40:18.754Z,100.00
2023-01-28T00:42:48.325Z,100.00
2023-01-28T00:45:18.550Z,100.00
2023-01-28T00:47:48.380Z,100.00
2023-01-28T00:50:21.487Z,100.00
2023-01-28T00:52:51.409Z,100.00
2023-01-28T00:55:21.830Z,100.00
2023-01-28T00:57:51.586Z,100.00
2023-01-28T01:00:27.282Z,100.00
2023-01-28T01:02:57.586Z,100.00
2023-01-28T01:05:29.773Z,100.00
2023-01-28T01:07:59.284Z,100.00
2023-01-28T01:10:29.188Z,100.00
2023-01-28T01:12:59.270Z,100.00
2023-01-28T01:15:29.074Z,100.00
2023-01-28T01:17:59.363Z,100.00
2023-01-28T01:20:33.680Z,100.00
2023-01-28T01:23:03.193Z,100.00
2023-01-28T01:25:32.735Z,100.00
2023-01-28T01:28:02.276Z,100.00
2023-01-28T01:30:31.838Z,100.00
2023-01-28T01:33:01.398Z,100.00
2023-01-28T01:35:33.519Z,100.00
2023-01-28T01:38:03.079Z,100.00
2023-01-28T01:40:33.704Z,100.00
2023-01-28T01:43:03.435Z,100.00
2023-01-28T01:45:36.712Z,100.00
2023-01-28T01:48:12.288Z,100.00
2023-01-28T01:50:57.137Z,100.00
2023-01-28T01:53:29.700Z,100.00
2023-01-28T01:56:03.921Z,100.00
2023-01-28T01:58:38.359Z,100.00
2023-01-28T02:01:09.857Z,100.00
2023-01-28T02:03:46.755Z,100.00
2023-01-28T02:06:18.965Z,100.00
2023-01-28T02:08:48.519Z,100.00
2023-01-28T02:11:20.164Z,100.00
2023-01-28T02:13:56.903Z,100.00
2023-01-28T02:16:27.546Z,100.00
2023-01-28T02:18:57.250Z,100.00
2023-01-28T02:21:58.895Z,100.00
2023-01-28T02:24:54.623Z,100.00
2023-01-28T02:27:32.989Z,100.00
2023-01-28T02:30:13.091Z,100.00
2023-01-28T02:32:48.649Z,100.00
2023-01-28T02:35:25.309Z,100.00
2023-01-28T02:37:58.310Z,100.00
2023-01-28T02:40:58.515Z,100.00
2023-01-28T02:43:36.104Z,100.00
2023-01-28T02:46:30.994Z,100.00
2023-01-28T02:49:01.467Z,100.00
2023-01-28T02:51:43.100Z,100.00
2023-01-28T02:54:17.323Z,100.00
2023-01-28T02:56:55.662Z,100.00
2023-01-28T02:59:37.149Z,100.00
2023-01-28T03:02:21.932Z,100.00
2023-01-28T03:04:57.514Z,100.00
2023-01-28T03:07:30.533Z,100.00
2023-01-28T03:10:04.344Z,100.00
2023-01-28T03:12:48.001Z,100.00
2023-01-28T03:15:32.691Z,100.00
2023-01-28T03:18:22.539Z,100.00
2023-01-28T03:21:10.583Z,100.00
2023-01-28T03:23:56.939Z,100.00
2023-01-28T03:26:42.091Z,100.00
2023-01-28T03:29:27.845Z,100.00
2023-01-28T03:32:22.873Z,100.00
2023-01-28T03:35:08.761Z,100.00
2023-01-28T03:37:38.491Z,100.00
2023-01-28T03:40:15.853Z,100.00
2023-01-28T03:42:46.575Z,100.00
2023-01-28T03:45:35.926Z,100.00
2023-01-28T03:48:08.185Z,100.00
2023-01-28T03:50:40.445Z,100.00
2023-01-28T03:53:16.936Z,100.00
2023-01-28T03:55:56.688Z,100.00
2023-01-28T03:58:47.884Z,100.00
2023-01-28T04:01:18.520Z,100.00
2023-01-28T04:03:48.326Z,100.00
2023-01-28T04:06:24.927Z,100.00
2023-01-28T04:09:24.108Z,100.00
2023-01-28T04:12:07.887Z,100.00
2023-01-28T04:14:44.371Z,100.00
2023-01-28T04:17:18.423Z,100.00
2023-01-28T04:19:49.298Z,100.00
2023-01-28T04:22:22.965Z,100.00
2023-01-28T04:24:53.750Z,100.00
2023-01-28T04:27:24.206Z,100.00
2023-01-28T04:29:53.945Z,100.00
2023-01-28T04:32:40.835Z,100.00
2023-01-28T04:35:33.160Z,100.00
2023-01-28T04:38:30.106Z,100.00
2023-01-28T04:41:12.830Z,100.00
2023-01-28T04:43:42.544Z,100.00
2023-01-28T04:46:29.799Z,100.00
2023-01-28T04:49:12.312Z,100.00
2023-01-28T04:51:53.243Z,100.00
2023-01-28T04:54:34.173Z,100.00
2023-01-28T04:57:05.735Z,100.00
2023-01-28T04:59:35.843Z,100.00
2023-01-28T05:02:05.485Z,100.00
2023-01-28T05:04:35.199Z,100.00
2023-01-28T05:07:04.965Z,100.00
2023-01-28T05:09:38.814Z,100.00
2023-01-28T05:12:09.080Z,100.00
2023-01-28T05:14:40.680Z,100.00
2023-01-28T05:17:16.665Z,100.00
2023-01-28T05:19:47.727Z,100.00
2023-01-28T05:22:25.834Z,100.00
2023-01-28T05:25:15.765Z,100.00
2023-01-28T05:27:55.240Z,100.00
2023-01-28T05:30:25.347Z,100.00
2023-01-28T05:32:58.516Z,100.00
2023-01-28T05:35:28.517Z,100.00
2023-01-28T05:37:58.135Z,100.00
2023-01-28T05:40:30.492Z,100.00
2023-01-28T05:43:00.412Z,100.00
2023-01-28T05:45:40.810Z,100.00
2023-01-28T05:48:17.043Z,100.00
2023-01-28T05:51:21.912Z,100.00
2023-01-28T05:53:57.574Z,100.00
2023-01-28T05:56:29.744Z,100.00
2023-01-28T05:58:59.343Z,100.00
2023-01-28T06:01:29.007Z,100.00
2023-01-28T06:03:59.285Z,100.00
2023-01-28T06:06:31.774Z,100.00
2023-01-28T06:09:01.387Z,100.00
2023-01-28T06:11:36.166Z,100.00
2023-01-28T06:14:08.054Z,100.00
2023-01-28T06:17:06.575Z,100.00
2023-01-28T06:19:56.389Z,100.00
2023-01-28T06:22:26.115Z,100.00
2023-01-28T06:24:55.882Z,100.00
2023-01-28T06:27:28.123Z,100.00
2023-01-28T06:29:57.804Z,100.00
2023-01-28T06:32:27.577Z,100.00
2023-01-28T06:34:57.607Z,100.00
2023-01-28T06:37:27.183Z,100.00
2023-01-28T06:39:56.746Z,100.00
2023-01-28T06:42:28.895Z,100.00
2023-01-28T06:44:58.570Z,100.00
2023-01-28T06:47:28.250Z,100.00
2023-01-28T06:49:57.806Z,100.00
2023-01-28T06:52:27.496Z,100.00
2023-01-28T06:54:57.725Z,100.00
2023-01-28T06:57:29.969Z,100.00
2023-01-28T06:59:59.543Z,100.00
2023-01-28T07:02:29.117Z,100.00
2023-01-28T07:04:58.673Z,100.00
2023-01-28T07:07:28.390Z,100.00
2023-01-28T07:09:58.143Z,100.00
2023-01-28T07:12:30.367Z,100.00
2023-01-28T07:15:00.274Z,100.00
2023-01-28T07:17:29.877Z,100.00
2023-01-28T07:19:59.474Z,100.00
2023-01-28T07:22:29.109Z,100.00
2023-01-28T07:24:59.143Z,100.00
2023-01-28T07:27:31.276Z,100.00
2023-01-28T07:30:00.856Z,100.00
2023-01-28T07:32:30.509Z,100.00
2023-01-28T07:35:00.100Z,100.00
2023-01-28T07:37:29.712Z,100.00
2023-01-28T07:39:59.299Z,100.00
2023-01-28T07:42:31.437Z,100.00
2023-01-28T07:45:06.905Z,100.00
2023-01-28T07:47:36.494Z,100.00
2023-01-28T07:50:06.501Z,100.00
2023-01-28T07:52:41.693Z,100.00
2023-01-28T07:55:11.966Z,100.00
2023-01-28T07:57:51.325Z,100.00
2023-01-28T08:00:22.063Z,100.00
2023-01-28T08:02:52.271Z,100.00
2023-01-28T08:05:23.670Z,100.00
2023-01-28T08:07:53.389Z,100.00
2023-01-28T08:10:23.028Z,100.00
2023-01-28T08:13:00.462Z,100.00
2023-01-28T08:15:30.534Z,100.00
2023-01-28T08:18:01.490Z,100.00
2023-01-28T08:20:32.551Z,100.00
2023-01-28T08:23:09.735Z,100.00
2023-01-28T08:25:39.681Z,100.00
2023-01-28T08:28:12.428Z,100.00
2023-01-28T08:30:42.572Z,100.00
2023-01-28T08:33:14.183Z,100.00
2023-01-28T08:35:43.917Z,100.00
2023-01-28T08:38:15.455Z,100.00
2023-01-28T08:40:45.117Z,100.00
2023-01-28T08:43:17.272Z,100.00
2023-01-28T08:45:46.844Z,100.00
2023-01-28T08:48:19.027Z,100.00
2023-01-28T08:50:48.907Z,100.00
2023-01-28T08:53:20.771Z,100.00
2023-01-28T08:55:50.570Z,100.00
2023-01-28T08:58:22.728Z,100.00
2023-01-28T09:00:53.336Z,100.00
2023-01-28T09:03:22.866Z,100.00
2023-01-28T09:05:52.436Z,100.00
2023-01-28T09:08:24.272Z,100.00
2023-01-28T09:10:58.029Z,100.00
2023-01-28T09:13:31.842Z,100.00
2023-01-28T09:16:01.461Z,100.00
2023-01-28T09:18:31.041Z,100.00
2023-01-28T09:21:00.642Z,100.00
2023-01-28T09:23:30.198Z,100.00
2023-01-28T09:26:03.126Z,100.00
2023-01-28T09:28:35.977Z,100.00
2023-01-28T09:31:06.290Z,100.00
2023-01-28T09:40:15.744Z,52.49
2023-01-28T09:44:31.706Z,42.51
2023-01-28T09:47:05.498Z,42.07
2023-01-28T09:49:43.345Z,41.78
2023-01-28T09:52:18.446Z,42.22
2023-01-28T09:54:51.543Z,41.61
2023-01-28T09:57:26.832Z,41.51
2023-01-28T10:00:02.159Z,41.38
2023-01-28T10:02:58.114Z,41.79
2023-01-28T10:05:40.891Z,41.98
2023-01-28T10:08:31.828Z,41.70
2023-01-28T10:11:14.938Z,41.79
2023-01-28T10:13:53.550Z,41.96
2023-01-28T10:16:34.258Z,41.66
2023-01-28T10:19:10.227Z,49.68
2023-01-28T10:21:45.755Z,43.50
2023-01-28T10:24:25.720Z,43.37
2023-01-28T10:26:56.194Z,43.54
2023-01-28T10:29:31.934Z,43.89
2023-01-28T10:53:18.367Z,41.26
2023-01-28T10:55:55.134Z,42.25
2023-01-28T10:58:28.162Z,39.92
2023-01-28T11:01:03.243Z,40.96
2023-01-28T11:03:35.325Z,43.50
2023-01-28T11:06:05.943Z,41.49
2023-01-28T11:08:47.436Z,41.38
2023-01-28T11:11:17.911Z,41.54
2023-01-28T11:13:55.637Z,41.64
2023-01-28T11:16:25.695Z,39.61
2023-01-28T11:18:58.259Z,35.24
2023-01-28T11:21:32.045Z,37.73
2023-01-28T11:24:08.532Z,39.24
2023-01-28T11:26:42.631Z,39.76
2023-01-28T11:29:33.925Z,40.34
2023-01-28T11:33:40.538Z,40.71
2023-01-28T11:36:16.123Z,40.66
2023-01-28T11:38:57.228Z,40.86
2023-01-28T11:41:30.997Z,40.78
2023-01-28T11:44:02.339Z,41.18
2023-01-28T11:46:47.989Z,41.59
2023-01-28T11:49:29.238Z,41.75
2023-01-28T11:52:05.894Z,41.75
2023-01-28T11:54:50.359Z,42.63
2023-01-28T11:57:27.295Z,42.75
2023-01-28T12:00:12.435Z,42.39
2023-01-28T12:03:00.518Z,42.69
2023-01-28T12:05:48.937Z,42.92
2023-01-28T12:08:25.444Z,42.69
2023-01-28T12:11:21.536Z,42.59
2023-01-28T12:14:08.387Z,42.69
2023-01-28T12:16:48.214Z,43.29
2023-01-28T12:19:31.500Z,43.08
2023-01-28T12:22:18.801Z,43.27
2023-01-28T12:25:05.594Z,43.21
2023-01-28T12:27:48.129Z,41.82
2023-01-28T12:30:27.538Z,42.98
2023-01-28T12:33:11.591Z,42.80
2023-01-28T12:36:02.660Z,42.60
2023-01-28T12:38:47.203Z,43.00
2023-01-28T12:41:19.557Z,43.04
2023-01-28T12:43:56.927Z,43.06
2023-01-28T12:46:46.228Z,43.17
2023-01-28T12:49:22.627Z,43.13
2023-01-28T12:52:02.788Z,42.90
2023-01-28T12:54:39.858Z,43.15
2023-01-28T12:57:15.873Z,43.29
2023-01-28T12:59:51.329Z,43.62
2023-01-28T13:02:28.565Z,43.38
2023-01-28T13:05:06.696Z,43.21
2023-01-28T13:07:41.989Z,43.32
2023-01-28T13:10:25.286Z,43.47
2023-01-28T13:12:56.065Z,43.71
2023-01-28T13:15:27.470Z,43.29
2023-01-28T13:18:01.596Z,43.33
2023-01-28T13:20:40.718Z,43.35
2023-01-28T13:23:28.075Z,43.42
2023-01-28T13:26:11.652Z,43.63
2023-01-28T13:28:41.346Z,43.73
2023-01-28T13:31:14.395Z,43.66
2023-01-28T13:33:45.054Z,43.35
2023-01-28T13:36:28.631Z,43.45
2023-01-28T13:39:07.075Z,43.55
2023-01-28T13:41:45.859Z,43.44
2023-01-28T13:44:31.570Z,43.45
2023-01-28T13:47:16.636Z,43.43
2023-01-28T13:49:49.656Z,43.09
2023-01-28T13:52:23.130Z,43.41
2023-01-28T13:54:57.885Z,43.43
2023-01-28T13:57:59.851Z,43.31
2023-01-28T14:00:39.289Z,43.64
2023-01-28T14:03:39.885Z,43.74
2023-01-28T14:06:52.830Z,43.29
2023-01-28T14:09:39.839Z,43.87
2023-01-28T14:12:35.134Z,43.52
2023-01-28T14:15:46.225Z,43.76
2023-01-28T14:18:28.143Z,43.36
2023-01-28T14:21:03.431Z,43.89
2023-01-28T14:23:33.808Z,43.67
2023-01-28T14:26:13.814Z,43.67
2023-01-28T14:28:51.657Z,43.47
2023-01-28T14:31:29.431Z,43.65
2023-01-28T14:34:08.828Z,43.76
2023-01-28T14:36:41.846Z,43.64
2023-01-28T14:39:19.425Z,43.45
2023-01-28T14:41:52.455Z,43.70
2023-01-28T14:44:31.711Z,43.67
2023-01-28T14:47:23.138Z,43.69
2023-01-28T14:50:08.136Z,43.96
2023-01-28T14:53:05.150Z,43.50
2023-01-28T14:55:43.300Z,43.49
2023-01-28T14:58:22.526Z,43.62
2023-01-28T15:00:59.637Z,43.84
2023-01-28T15:03:30.854Z,43.73
2023-01-28T15:06:16.297Z,43.69
2023-01-28T15:08:45.965Z,43.43
2023-01-28T15:11:18.650Z,43.62
2023-01-28T15:13:50.633Z,43.36
2023-01-28T15:16:23.203Z,43.89
2023-01-28T15:18:53.724Z,43.60
2023-01-28T15:21:28.349Z,43.54
2023-01-28T15:24:01.160Z,43.59
2023-01-28T15:26:33.579Z,43.64
2023-01-28T15:29:03.389Z,43.42
2023-01-28T15:31:35.117Z,43.37
2023-01-28T15:34:06.590Z,43.58
2023-01-28T15:36:38.865Z,43.47
2023-01-28T15:39:17.133Z,43.73
2023-01-28T15:41:50.415Z,43.53
2023-01-28T15:44:21.958Z,43.78
2023-01-28T15:46:51.534Z,43.40
2023-01-28T15:49:21.147Z,43.59
2023-01-28T15:51:56.689Z,43.95
2023-01-28T15:54:26.976Z,43.78
2023-01-28T15:56:56.605Z,41.25
2023-01-28T15:59:31.258Z,41.35
2023-01-28T16:02:20.717Z,41.48
2023-01-28T16:05:00.938Z,40.76
2023-01-28T16:07:36.076Z,41.79
2023-01-28T16:10:06.812Z,42.03
2023-01-28T16:12:36.371Z,41.86
2023-01-28T16:15:07.464Z,42.17
2023-01-28T16:17:43.859Z,42.07
2023-01-28T16:20:23.889Z,42.53
2023-01-28T16:22:59.064Z,42.26
2023-01-28T16:25:32.307Z,42.76
2023-01-28T16:28:03.765Z,42.66
2023-01-28T16:30:33.533Z,42.69
2023-01-28T16:33:03.079Z,42.78
2023-01-28T16:35:56.525Z,42.98
2023-01-28T16:40:56.028Z,42.87
2023-01-28T16:43:25.522Z,43.04
2023-01-28T16:45:55.389Z,43.25
2023-01-28T16:48:25.206Z,43.28
2023-01-28T16:50:54.692Z,43.17
2023-01-28T16:53:34.992Z,43.34
2023-01-28T16:56:05.231Z,43.54
2023-01-28T16:58:34.760Z,43.66
2023-01-28T17:01:04.396Z,43.52
2023-01-28T17:03:33.936Z,43.78
2023-01-28T17:06:03.431Z,43.81
2023-01-28T17:08:35.743Z,43.95
2023-01-28T17:11:05.231Z,44.08
2023-01-28T17:13:34.792Z,44.02
2023-01-28T17:16:05.247Z,44.01
2023-01-28T17:18:35.074Z,44.21
2023-01-28T17:21:05.540Z,44.11
2023-01-28T17:23:38.098Z,44.35
2023-01-28T17:26:08.892Z,44.36
2023-01-28T17:28:38.624Z,44.65
2023-01-28T17:31:08.850Z,45.20
2023-01-28T17:33:38.514Z,45.97
2023-01-28T17:36:08.470Z,45.15
2023-01-28T17:38:40.722Z,46.01
2023-01-28T17:41:11.767Z,45.80
2023-01-28T17:43:41.401Z,46.27
2023-01-28T17:46:14.695Z,46.43
2023-01-28T17:48:45.764Z,46.27
2023-01-28T17:51:16.884Z,46.32
2023-01-28T17:53:51.037Z,46.48
2023-01-28T17:56:21.992Z,46.45
2023-01-28T17:58:53.410Z,46.86
2023-01-28T18:01:23.610Z,46.96
2023-01-28T18:03:53.986Z,46.88
2023-01-28T18:06:23.594Z,47.32
2023-01-28T18:08:55.676Z,47.50
2023-01-28T18:11:25.247Z,47.78
2023-01-28T18:13:54.793Z,47.34
2023-01-28T18:16:24.972Z,47.72
2023-01-28T18:18:54.700Z,47.60
2023-01-28T18:21:43.035Z,48.19
2023-01-28T18:24:23.775Z,47.46
2023-01-28T18:26:55.434Z,48.15
2023-01-28T18:29:25.088Z,47.84
2023-01-28T18:31:56.466Z,48.22
2023-01-28T18:34:27.291Z,47.79
2023-01-28T18:36:58.010Z,47.94
2023-01-28T18:39:32.222Z,48.36
2023-01-28T18:42:02.684Z,48.43
2023-01-28T18:44:33.342Z,48.63
2023-01-28T18:47:02.987Z,47.59
2023-01-28T18:49:32.537Z,45.13
2023-01-28T18:52:02.111Z,47.59
2023-01-28T18:55:21.425Z,47.28
2023-01-28T18:57:51.118Z,47.28
2023-01-28T19:00:21.917Z,47.30
2023-01-28T19:02:51.927Z,46.85
2023-01-28T19:05:21.898Z,46.61
2023-01-28T19:07:51.462Z,45.85
2023-01-28T19:10:24.699Z,45.31
2023-01-28T19:12:55.542Z,45.24
2023-01-28T19:15:46.109Z,44.09
2023-01-28T19:18:15.742Z,43.36
2023-01-28T19:20:45.511Z,42.83
2023-01-28T19:23:15.166Z,42.22
2023-01-28T19:25:44.675Z,42.26
